EmailTwitter


Observations de surface / Québec / EGDM

Régions: Québec | Canada | États-Unis | Europe | France | UK | Ailleurs
Station
Affichage
Infos & localisation pour EGDM | Aide pour décoder les METARs

Observations prises le 2017-09-21 à 10H32 UTC à BOSCOMBE DOWN, UK (EGDM)

Etat du ciel: couvert.

Obstacle(s) à la visibilité: faible pluie et bruine.

Température: 14.0 Celsius

Point de rosée: 14.0 Celsius

Humidité relative: 100%

Vents: Sud à 22 km/h ou 12 noeuds.

Pression au niveau moyen de la mer: 101.30 kilopascals.

Visibilité horizontale: 2.80 milles terrestres ou 4.47 kilomètres.

Hauteur du plafond: 122 mètres ( 400 pieds ).

Observation METAR:

EGDM 211032Z 17012KT 4500 -RADZ BKN004 OVC009 14/14 Q1013 YLO2 TEMPO BKN006

YLO1=